Terminal Aerodrome Forecast
Issued by NWS

Home | Current Version | Previous Version | Text Only | Print | Product List | Glossary On
Versions: 1 2 3 4 5 6 7 8 9 10 11 12 13 14
000
FTUS43 KJKL 291739
TAFSME
TAF
KSME 291739Z 2918/3018 18008KT P6SM SCT250
     FM300200 21009G15KT P6SM VCSH BKN030 OVC060
     FM300400 23009KT 5SM -SHRA BKN025 OVC035
     FM300600 25006KT 4SM -SHRA BR OVC015
     FM301200 33004KT P6SM VCSH BKN015
     FM301600 32006KT P6SM SCT015=

USA.gov is the U.S. government's official web portal to all federal, state and local government web resources and services.